Time,TemperatureF,DewpointF,PressureIn,WindDirection,WindDirectionDegrees,WindSpeedMPH,WindSpeedGustMPH,Humidity,HourlyPrecipIn,Conditions,Clouds,dailyrainin,SoftwareType,DateUTC
2013-10-19 00:01:00,47.7,45.1,29.63,NNW,348,0.0,1.0,91,0.00,,,0.00,meteohub,2013-10-19 04:01:00,
2013-10-19 00:02:00,47.7,45.1,29.63,NNW,348,0.0,1.0,91,0.00,,,0.00,meteohub,2013-10-19 04:02:00,
2013-10-19 00:03:00,47.7,45.1,29.63,NNW,348,1.0,1.0,91,0.00,,,0.00,meteohub,2013-10-19 04:03:00,
2013-10-19 00:04:00,47.7,45.5,29.63,NNW,348,0.0,1.0,92,0.00,,,0.00,meteohub,2013-10-19 04:04:00,
2013-10-19 00:09:00,47.7,45.5,29.63,NNW,348,1.0,1.0,92,0.00,,,0.00,meteohub,2013-10-19 04:09:00,
2013-10-19 00:14:00,47.5,45.0,29.63,NNW,348,0.0,2.0,91,0.00,,,0.00,meteohub,2013-10-19 04:14:00,
2013-10-19 00:19:00,46.9,44.8,29.63,WNW,300,0.0,2.0,92,0.00,,,0.00,meteohub,2013-10-19 04:19:00,
2013-10-19 00:24:00,46.2,44.1,29.64,WNW,300,0.0,3.0,92,0.00,,,0.00,meteohub,2013-10-19 04:24:00,
2013-10-19 00:29:00,45.9,43.9,29.64,WNW,298,1.0,3.0,93,0.00,,,0.00,meteohub,2013-10-19 04:29:00,
2013-10-19 00:34:00,45.7,44.1,29.64,WNW,298,0.0,3.0,94,0.00,,,0.00,meteohub,2013-10-19 04:34:00,
2013-10-19 00:39:00,45.5,44.2,29.64,West,280,0.0,2.0,95,0.00,,,0.00,meteohub,2013-10-19 04:39:00,
2013-10-19 00:45:00,45.3,44.1,29.64,West,280,0.0,2.0,95,0.00,,,0.00,meteohub,2013-10-19 04:45:00,
2013-10-19 00:50:00,45.1,43.9,29.64,West,280,0.0,3.0,95,0.00,,,0.00,meteohub,2013-10-19 04:50:00,
2013-10-19 00:55:00,45.1,43.9,29.64,West,280,0.0,2.0,95,0.00,,,0.00,meteohub,2013-10-19 04:55:00,
2013-10-19 01:00:00,45.3,44.2,29.64,West,280,0.0,2.0,96,0.00,,,0.00,meteohub,2013-10-19 05:00:00,
2013-10-19 01:05:00,45.5,44.4,29.64,WSW,257,0.0,3.0,96,0.00,,,0.00,meteohub,2013-10-19 05:05:00,
2013-10-19 01:10:00,45.9,44.4,29.64,WSW,257,1.0,6.0,95,0.00,,,0.00,meteohub,2013-10-19 05:10:00,
2013-10-19 01:15:00,45.7,44.1,29.64,WSW,257,0.0,6.0,94,0.00,,,0.00,meteohub,2013-10-19 05:15:00,
2013-10-19 01:20:00,45.9,44.2,29.65,WSW,257,0.0,2.0,94,0.00,,,0.00,meteohub,2013-10-19 05:20:00,
2013-10-19 01:26:00,45.9,44.2,29.65,North,5,0.0,6.0,94,0.00,,,0.00,meteohub,2013-10-19 05:26:00,
2013-10-19 01:31:00,45.9,44.2,29.64,North,5,0.0,6.0,94,0.00,,,0.00,meteohub,2013-10-19 05:31:00,
2013-10-19 01:36:00,45.9,43.9,29.64,North,5,0.0,6.0,93,0.00,,,0.00,meteohub,2013-10-19 05:36:00,
2013-10-19 01:41:00,45.7,43.7,29.64,North,5,0.0,1.0,93,0.00,,,0.00,meteohub,2013-10-19 05:41:00,
2013-10-19 01:46:00,45.3,43.3,29.65,North,5,0.0,1.0,93,0.00,,,0.00,meteohub,2013-10-19 05:46:00,
2013-10-19 01:51:00,45.0,43.3,29.65,North,5,0.0,1.0,94,0.00,,,0.00,meteohub,2013-10-19 05:51:00,
2013-10-19 01:56:00,44.8,43.2,29.65,North,5,0.0,1.0,94,0.00,,,0.00,meteohub,2013-10-19 05:56:00,
2013-10-19 02:01:00,44.4,43.2,29.65,North,5,0.0,1.0,95,0.00,,,0.00,meteohub,2013-10-19 06:01:00,
2013-10-19 02:07:00,44.2,43.0,29.65,North,5,0.0,1.0,95,0.00,,,0.00,meteohub,2013-10-19 06:07:00,
2013-10-19 02:12:00,44.1,42.8,29.65,North,5,0.0,1.0,95,0.00,,,0.00,meteohub,2013-10-19 06:12:00,
2013-10-19 02:17:00,43.9,42.6,29.65,North,5,0.0,1.0,95,0.00,,,0.00,meteohub,2013-10-19 06:17:00,
2013-10-19 02:22:00,43.9,42.8,29.65,North,5,0.0,1.0,96,0.00,,,0.00,meteohub,2013-10-19 06:22:00,
2013-10-19 02:27:00,43.9,42.8,29.65,North,5,0.0,1.0,96,0.00,,,0.00,meteohub,2013-10-19 06:27:00,
2013-10-19 02:32:00,43.5,42.3,29.65,North,351,0.0,1.0,95,0.00,,,0.00,meteohub,2013-10-19 06:32:00,
2013-10-19 02:37:00,43.5,42.4,29.65,WSW,252,2.0,2.0,96,0.00,,,0.00,meteohub,2013-10-19 06:37:00,
2013-10-19 02:42:00,44.2,43.2,29.65,WSW,252,1.0,6.0,96,0.00,,,0.00,meteohub,2013-10-19 06:42:00,
2013-10-19 02:47:00,45.3,43.2,29.65,West,272,7.0,7.0,92,0.00,,,0.00,meteohub,2013-10-19 06:47:00,
2013-10-19 02:52:00,46.2,43.5,29.65,WSW,240,1.0,10.0,90,0.00,,,0.00,meteohub,2013-10-19 06:52:00,
2013-10-19 02:57:00,46.8,43.7,29.65,West,269,0.0,10.0,89,0.00,,,0.00,meteohub,2013-10-19 06:57:00,
2013-10-19 03:02:00,46.9,43.5,29.65,SW,223,3.0,9.0,88,0.00,,,0.00,meteohub,2013-10-19 07:02:00,
2013-10-19 03:07:00,47.1,43.5,29.65,WSW,242,6.0,10.0,87,0.00,,,0.00,meteohub,2013-10-19 07:07:00,
2013-10-19 03:12:00,47.1,43.2,29.65,WSW,246,0.0,13.0,86,0.00,,,0.00,meteohub,2013-10-19 07:12:00,
2013-10-19 03:17:00,46.9,43.3,29.65,North,355,0.0,13.0,87,0.00,,,0.00,meteohub,2013-10-19 07:17:00,
2013-10-19 03:22:00,46.8,42.8,29.65,WSW,238,0.0,13.0,86,0.00,,,0.00,meteohub,2013-10-19 07:22:00,
2013-10-19 03:28:00,46.6,42.6,29.65,WNW,297,1.0,4.0,86,0.00,,,0.00,meteohub,2013-10-19 07:28:00,
2013-10-19 03:33:00,46.4,42.4,29.66,SSW,207,6.0,6.0,86,0.00,,,0.00,meteohub,2013-10-19 07:33:00,
2013-10-19 03:38:00,46.6,42.6,29.66,SW,216,0.0,8.0,86,0.00,,,0.00,meteohub,2013-10-19 07:38:00,
2013-10-19 03:43:00,46.8,42.3,29.67,SW,220,2.0,8.0,84,0.00,,,0.00,meteohub,2013-10-19 07:43:00,
2013-10-19 03:48:00,46.8,42.3,29.67,South,182,1.0,9.0,84,0.00,,,0.00,meteohub,2013-10-19 07:48:00,
2013-10-19 03:53:00,46.8,42.3,29.67,West,267,0.0,9.0,84,0.00,,,0.00,meteohub,2013-10-19 07:53:00,
2013-10-19 03:58:00,46.8,42.3,29.67,West,272,4.0,9.0,84,0.00,,,0.00,meteohub,2013-10-19 07:58:00,
2013-10-19 04:03:00,46.8,42.3,29.67,WSW,253,4.0,10.0,84,0.00,,,0.00,meteohub,2013-10-19 08:03:00,
2013-10-19 04:09:00,46.8,41.9,29.67,West,281,0.0,10.0,83,0.00,,,0.00,meteohub,2013-10-19 08:09:00,
2013-10-19 04:14:00,46.6,42.1,29.67,SW,235,0.0,10.0,84,0.00,,,0.00,meteohub,2013-10-19 08:14:00,
2013-10-19 04:19:00,46.4,41.9,29.67,SW,215,4.0,7.0,84,0.00,,,0.00,meteohub,2013-10-19 08:19:00,
2013-10-19 04:24:00,46.2,41.7,29.67,SW,215,1.0,8.0,84,0.00,,,0.00,meteohub,2013-10-19 08:24:00,
2013-10-19 04:29:00,46.4,41.9,29.68,SW,229,8.0,11.0,84,0.00,,,0.00,meteohub,2013-10-19 08:29:00,
2013-10-19 04:34:00,46.4,41.9,29.68,NNW,340,0.0,15.0,84,0.00,,,0.00,meteohub,2013-10-19 08:34:00,
2013-10-19 04:39:00,46.2,41.7,29.68,WNW,302,2.0,15.0,84,0.00,,,0.00,meteohub,2013-10-19 08:39:00,
2013-10-19 04:44:00,46.2,41.7,29.68,West,269,1.0,15.0,84,0.00,,,0.00,meteohub,2013-10-19 08:44:00,
2013-10-19 04:49:00,46.0,41.5,29.68,WSW,238,3.0,10.0,84,0.00,,,0.00,meteohub,2013-10-19 08:49:00,
2013-10-19 04:55:00,46.0,41.2,29.68,WSW,237,0.0,9.0,83,0.00,,,0.00,meteohub,2013-10-19 08:55:00,
2013-10-19 05:00:00,46.0,41.5,29.68,SW,234,0.0,11.0,84,0.00,,,0.00,meteohub,2013-10-19 09:00:00,
2013-10-19 05:05:00,45.9,41.4,29.68,WNW,302,4.0,11.0,84,0.00,,,0.00,meteohub,2013-10-19 09:05:00,
2013-10-19 05:10:00,45.9,41.4,29.68,WSW,249,0.0,6.0,84,0.00,,,0.00,meteohub,2013-10-19 09:10:00,
2013-10-19 05:15:00,45.7,40.8,29.68,SW,220,0.0,6.0,83,0.00,,,0.00,meteohub,2013-10-19 09:15:00,
2013-10-19 05:20:00,45.5,40.6,29.68,WNW,283,1.0,8.0,83,0.00,,,0.00,meteohub,2013-10-19 09:20:00,
2013-10-19 05:25:00,45.3,40.5,29.68,WSW,247,4.0,14.0,83,0.00,,,0.00,meteohub,2013-10-19 09:25:00,
2013-10-19 05:31:00,45.1,40.3,29.68,WSW,243,0.0,14.0,83,0.00,,,0.00,meteohub,2013-10-19 09:31:00,
2013-10-19 05:36:00,45.0,40.1,29.68,WSW,258,4.0,14.0,83,0.00,,,0.00,meteohub,2013-10-19 09:36:00,
2013-10-19 05:41:00,45.0,40.1,29.68,SW,230,2.0,10.0,83,0.00,,,0.00,meteohub,2013-10-19 09:41:00,
2013-10-19 05:46:00,44.8,39.9,29.68,WNW,296,8.0,10.0,83,0.00,,,0.00,meteohub,2013-10-19 09:46:00,
2013-10-19 05:51:00,44.8,39.9,29.69,West,275,4.0,12.0,83,0.00,,,0.00,meteohub,2013-10-19 09:51:00,
2013-10-19 05:56:00,44.6,39.7,29.68,South,189,2.0,12.0,83,0.00,,,0.00,meteohub,2013-10-19 09:56:00,
2013-10-19 06:01:00,44.4,39.9,29.68,SSW,212,7.0,12.0,84,0.00,,,0.00,meteohub,2013-10-19 10:01:00,
2013-10-19 06:06:00,44.4,39.9,29.69,SW,223,4.0,9.0,84,0.00,,,0.00,meteohub,2013-10-19 10:06:00,
2013-10-19 06:12:00,44.2,39.7,29.69,West,280,2.0,10.0,84,0.00,,,0.00,meteohub,2013-10-19 10:12:00,
2013-10-19 06:17:00,44.2,39.4,29.69,West,277,2.0,10.0,83,0.00,,,0.00,meteohub,2013-10-19 10:17:00,
2013-10-19 06:22:00,44.1,39.2,29.69,SSW,195,0.0,10.0,83,0.00,,,0.00,meteohub,2013-10-19 10:22:00,
2013-10-19 06:27:00,44.1,39.2,29.69,SW,225,1.0,8.0,83,0.00,,,0.00,meteohub,2013-10-19 10:27:00,
2013-10-19 06:32:00,43.9,39.4,29.69,SW,234,4.0,8.0,84,0.00,,,0.00,meteohub,2013-10-19 10:32:00,
2013-10-19 06:37:00,44.1,39.2,29.69,West,268,3.0,10.0,83,0.00,,,0.00,meteohub,2013-10-19 10:37:00,
2013-10-19 06:42:00,44.1,39.2,29.69,SW,232,8.0,10.0,83,0.00,,,0.00,meteohub,2013-10-19 10:42:00,
2013-10-19 06:47:00,44.1,39.2,29.70,WSW,244,5.0,12.0,83,0.00,,,0.00,meteohub,2013-10-19 10:47:00,
2013-10-19 06:52:00,44.1,39.2,29.71,South,188,1.0,12.0,83,0.00,,,0.00,meteohub,2013-10-19 10:52:00,
2013-10-19 06:57:00,43.9,39.0,29.71,SW,227,2.0,12.0,83,0.00,,,0.00,meteohub,2013-10-19 10:57:00,
2013-10-19 07:02:00,43.7,39.2,29.71,West,265,0.0,11.0,84,0.00,,,0.00,meteohub,2013-10-19 11:02:00,
2013-10-19 07:07:00,43.5,39.0,29.71,WSW,256,2.0,10.0,84,0.00,,,0.00,meteohub,2013-10-19 11:07:00,
2013-10-19 07:12:00,43.3,38.8,29.71,WNW,302,1.0,9.0,84,0.00,,,0.00,meteohub,2013-10-19 11:12:00,
2013-10-19 07:17:00,43.3,39.2,29.71,ENE,67,0.0,9.0,85,0.00,,,0.00,meteohub,2013-10-19 11:17:00,
2013-10-19 07:22:00,43.2,39.0,29.71,East,99,0.0,9.0,85,0.00,,,0.00,meteohub,2013-10-19 11:22:00,
2013-10-19 07:27:00,43.3,39.2,29.71,NNW,336,0.0,5.0,85,0.00,,,0.00,meteohub,2013-10-19 11:27:00,
2013-10-19 07:32:00,43.5,39.4,29.72,NE,35,0.0,6.0,85,0.00,,,0.00,meteohub,2013-10-19 11:32:00,
2013-10-19 07:37:00,43.5,39.4,29.72,East,98,2.0,6.0,85,0.00,,,0.00,meteohub,2013-10-19 11:37:00,
2013-10-19 07:42:00,43.9,39.7,29.72,NNE,27,0.0,6.0,85,0.00,,,0.00,meteohub,2013-10-19 11:42:00,
2013-10-19 07:47:00,43.9,39.7,29.72,SW,236,0.0,6.0,85,0.00,,,0.00,meteohub,2013-10-19 11:47:00,
2013-10-19 07:52:00,44.1,39.6,29.73,NW,325,6.0,6.0,84,0.00,,,0.00,meteohub,2013-10-19 11:52:00,
2013-10-19 07:57:00,44.4,39.9,29.73,SSE,165,0.0,7.0,84,0.00,,,0.00,meteohub,2013-10-19 11:57:00,
2013-10-19 08:02:00,44.8,39.9,29.73,East,91,0.0,7.0,83,0.00,,,0.00,meteohub,2013-10-19 12:02:00,
2013-10-19 08:07:00,45.0,40.1,29.73,SE,128,0.0,7.0,83,0.00,,,0.00,meteohub,2013-10-19 12:07:00,
2013-10-19 08:12:00,45.3,40.1,29.73,West,267,2.0,4.0,82,0.00,,,0.00,meteohub,2013-10-19 12:12:00,
2013-10-19 08:18:00,45.3,39.9,29.73,SSW,200,0.0,4.0,81,0.00,,,0.00,meteohub,2013-10-19 12:18:00,
2013-10-19 08:23:00,45.3,39.9,29.73,West,267,1.0,6.0,81,0.00,,,0.00,meteohub,2013-10-19 12:23:00,
2013-10-19 08:28:00,45.3,39.9,29.73,South,181,0.0,10.0,81,0.00,,,0.00,meteohub,2013-10-19 12:28:00,
2013-10-19 08:33:00,45.7,40.1,29.73,West,281,2.0,10.0,81,0.00,,,0.00,meteohub,2013-10-19 12:33:00,
2013-10-19 08:38:00,46.0,40.3,29.73,SSW,207,0.0,10.0,80,0.00,,,0.00,meteohub,2013-10-19 12:38:00,
2013-10-19 08:43:00,46.0,39.6,29.73,West,269,2.0,4.0,78,0.00,,,0.00,meteohub,2013-10-19 12:43:00,
2013-10-19 08:48:00,46.0,39.9,29.74,NNW,333,5.0,11.0,79,0.00,,,0.00,meteohub,2013-10-19 12:48:00,
2013-10-19 08:53:00,46.4,40.6,29.73,North,5,1.0,11.0,80,0.00,,,0.00,meteohub,2013-10-19 12:53:00,
2013-10-19 08:59:00,46.8,40.3,29.73,West,263,0.0,11.0,78,0.00,,,0.00,meteohub,2013-10-19 12:59:00,
2013-10-19 09:04:00,46.6,40.1,29.73,WSW,248,8.0,9.0,78,0.00,,,0.00,meteohub,2013-10-19 13:04:00,
2013-10-19 09:09:00,46.8,39.9,29.74,NW,323,6.0,9.0,77,0.00,,,0.00,meteohub,2013-10-19 13:09:00,
2013-10-19 09:14:00,46.8,39.9,29.73,SW,225,3.0,13.0,77,0.00,,,0.00,meteohub,2013-10-19 13:14:00,
2013-10-19 09:19:00,47.1,40.3,29.73,NW,304,2.0,13.0,77,0.00,,,0.00,meteohub,2013-10-19 13:19:00,
2013-10-19 09:24:00,47.1,39.9,29.74,WNW,302,6.0,13.0,76,0.00,,,0.00,meteohub,2013-10-19 13:24:00,
2013-10-19 09:29:00,47.3,40.1,29.74,NE,49,0.0,11.0,76,0.00,,,0.00,meteohub,2013-10-19 13:29:00,
2013-10-19 09:34:00,47.3,40.1,29.73,NNE,30,1.0,11.0,76,0.00,,,0.00,meteohub,2013-10-19 13:34:00,
2013-10-19 09:39:00,47.7,40.5,29.73,WNW,294,2.0,12.0,76,0.00,,,0.00,meteohub,2013-10-19 13:39:00,
2013-10-19 09:45:00,47.8,40.3,29.73,SW,224,0.0,13.0,75,0.00,,,0.00,meteohub,2013-10-19 13:45:00,
2013-10-19 09:50:00,48.2,40.6,29.74,NW,305,1.0,13.0,75,0.00,,,0.00,meteohub,2013-10-19 13:50:00,
2013-10-19 09:55:00,48.6,41.4,29.74,West,272,0.0,7.0,76,0.00,,,0.00,meteohub,2013-10-19 13:55:00,
2013-10-19 10:00:00,48.6,40.6,29.75,WSW,256,0.0,7.0,74,0.00,,,0.00,meteohub,2013-10-19 14:00:00,
2013-10-19 10:05:00,48.6,40.6,29.74,NE,46,1.0,6.0,74,0.00,,,0.00,meteohub,2013-10-19 14:05:00,
2013-10-19 10:10:00,48.6,40.6,29.75,North,355,7.0,11.0,74,0.00,,,0.00,meteohub,2013-10-19 14:10:00,
2013-10-19 10:15:00,48.9,41.0,29.75,SSW,212,2.0,11.0,74,0.00,,,0.00,meteohub,2013-10-19 14:15:00,
2013-10-19 10:20:00,49.3,40.6,29.75,NNE,19,1.0,11.0,72,0.00,,,0.00,meteohub,2013-10-19 14:20:00,
2013-10-19 10:26:00,49.6,41.0,29.75,South,186,2.0,8.0,72,0.00,,,0.00,meteohub,2013-10-19 14:26:00,
2013-10-19 10:31:00,49.8,41.2,29.75,NW,310,1.0,8.0,72,0.00,,,0.00,meteohub,2013-10-19 14:31:00,
2013-10-19 10:36:00,50.2,40.5,29.75,WSW,253,0.0,8.0,69,0.00,,,0.00,meteohub,2013-10-19 14:36:00,
2013-10-19 10:41:00,50.0,40.3,29.75,SW,215,1.0,8.0,69,0.00,,,0.00,meteohub,2013-10-19 14:41:00,
2013-10-19 10:46:00,50.2,39.6,29.75,West,269,5.0,10.0,67,0.00,,,0.00,meteohub,2013-10-19 14:46:00,
2013-10-19 10:51:00,50.4,40.6,29.75,SW,236,4.0,10.0,69,0.00,,,0.00,meteohub,2013-10-19 14:51:00,
2013-10-19 10:56:00,50.4,39.7,29.76,NNE,20,1.0,13.0,67,0.00,,,0.00,meteohub,2013-10-19 14:56:00,
2013-10-19 11:01:00,50.4,39.7,29.76,North,0,4.0,21.0,67,0.00,,,0.00,meteohub,2013-10-19 15:01:00,
2013-10-19 11:07:00,50.2,39.6,29.75,SSW,213,4.0,21.0,67,0.00,,,0.00,meteohub,2013-10-19 15:07:00,
2013-10-19 11:12:00,50.2,40.1,29.75,SW,220,4.0,15.0,68,0.00,,,0.00,meteohub,2013-10-19 15:12:00,
2013-10-19 11:17:00,50.0,40.3,29.76,WNW,292,3.0,10.0,69,0.00,,,0.00,meteohub,2013-10-19 15:17:00,
2013-10-19 11:22:00,50.4,39.7,29.76,WSW,248,5.0,9.0,67,0.00,,,0.00,meteohub,2013-10-19 15:22:00,
2013-10-19 11:27:00,50.5,40.5,29.76,West,271,8.0,9.0,68,0.00,,,0.00,meteohub,2013-10-19 15:27:00,
2013-10-19 11:32:00,50.4,39.7,29.76,West,262,3.0,10.0,67,0.00,,,0.00,meteohub,2013-10-19 15:32:00,
2013-10-19 11:37:00,50.4,40.3,29.76,WSW,246,4.0,10.0,68,0.00,,,0.00,meteohub,2013-10-19 15:37:00,
2013-10-19 11:42:00,50.4,39.7,29.76,WSW,251,0.0,10.0,67,0.00,,,0.00,meteohub,2013-10-19 15:42:00,
2013-10-19 11:47:00,50.5,39.9,29.76,WSW,250,5.0,10.0,67,0.00,,,0.00,meteohub,2013-10-19 15:47:00,
2013-10-19 11:52:00,51.1,40.8,29.76,WSW,239,3.0,10.0,68,0.00,,,0.00,meteohub,2013-10-19 15:52:00,
2013-10-19 11:57:00,51.8,40.5,29.75,NW,323,0.0,10.0,65,0.00,,,0.00,meteohub,2013-10-19 15:57:00,
2013-10-19 12:02:00,52.2,39.6,29.75,West,271,11.0,12.0,62,0.00,,,0.00,meteohub,2013-10-19 16:02:00,
2013-10-19 12:07:00,52.5,40.6,29.75,SSE,159,1.0,16.0,64,0.00,,,0.00,meteohub,2013-10-19 16:07:00,
2013-10-19 12:12:00,52.3,39.4,29.75,WNW,286,7.0,16.0,61,0.00,,,0.00,meteohub,2013-10-19 16:12:00,
2013-10-19 12:17:00,52.2,39.9,29.75,SW,219,4.0,12.0,63,0.00,,,0.00,meteohub,2013-10-19 16:17:00,
2013-10-19 12:22:00,52.2,39.6,29.75,West,269,7.0,12.0,62,0.00,,,0.00,meteohub,2013-10-19 16:22:00,
2013-10-19 12:27:00,52.2,39.9,29.75,West,259,7.0,12.0,63,0.00,,,0.00,meteohub,2013-10-19 16:27:00,
2013-10-19 12:32:00,52.2,39.9,29.75,SW,221,4.0,11.0,63,0.00,,,0.00,meteohub,2013-10-19 16:32:00,
2013-10-19 12:37:00,52.0,39.7,29.75,SSW,204,0.0,9.0,63,0.00,,,0.00,meteohub,2013-10-19 16:37:00,
2013-10-19 12:42:00,52.2,39.6,29.75,WNW,285,0.0,8.0,62,0.00,,,0.00,meteohub,2013-10-19 16:42:00,
2013-10-19 12:47:00,52.5,39.9,29.75,WSW,242,2.0,7.0,62,0.00,,,0.00,meteohub,2013-10-19 16:47:00,
2013-10-19 12:52:00,53.1,40.8,29.75,WSW,243,0.0,4.0,63,0.00,,,0.00,meteohub,2013-10-19 16:52:00,
2013-10-19 12:58:00,54.0,41.2,29.74,WSW,241,4.0,4.0,62,0.00,,,0.00,meteohub,2013-10-19 16:58:00,
2013-10-19 13:03:00,54.3,40.3,29.75,West,265,9.0,9.0,59,0.00,,,0.00,meteohub,2013-10-19 17:03:00,
2013-10-19 13:08:00,54.0,39.9,29.75,WNW,289,3.0,12.0,59,0.00,,,0.00,meteohub,2013-10-19 17:08:00,
2013-10-19 13:13:00,54.1,40.1,29.75,SW,214,5.0,12.0,59,0.00,,,0.00,meteohub,2013-10-19 17:13:00,
2013-10-19 13:18:00,54.1,39.7,29.75,NW,305,4.0,12.0,58,0.00,,,0.00,meteohub,2013-10-19 17:18:00,
2013-10-19 13:23:00,54.7,40.3,29.75,NW,309,1.0,11.0,58,0.00,,,0.00,meteohub,2013-10-19 17:23:00,
2013-10-19 13:28:00,55.2,40.6,29.75,North,0,1.0,11.0,58,0.00,,,0.00,meteohub,2013-10-19 17:28:00,
2013-10-19 13:33:00,55.8,40.8,29.75,North,355,3.0,11.0,57,0.00,,,0.00,meteohub,2013-10-19 17:33:00,
2013-10-19 13:39:00,56.1,41.2,29.75,NW,310,4.0,11.0,57,0.00,,,0.00,meteohub,2013-10-19 17:39:00,
2013-10-19 13:44:00,56.3,40.8,29.76,SW,224,6.0,6.0,56,0.00,,,0.00,meteohub,2013-10-19 17:44:00,
2013-10-19 13:49:00,55.9,39.9,29.75,NW,307,4.0,7.0,55,0.00,,,0.00,meteohub,2013-10-19 17:49:00,
2013-10-19 13:54:00,55.8,38.8,29.76,WNW,288,3.0,7.0,53,0.00,,,0.00,meteohub,2013-10-19 17:54:00,
2013-10-19 13:59:00,55.8,39.9,29.76,WNW,290,6.0,12.0,55,0.00,,,0.00,meteohub,2013-10-19 17:59:00,
2013-10-19 14:04:00,55.4,39.6,29.76,WSW,237,2.0,12.0,55,0.00,,,0.00,meteohub,2013-10-19 18:04:00,
2013-10-19 14:09:00,55.6,39.7,29.75,NW,322,0.0,12.0,55,0.00,,,0.00,meteohub,2013-10-19 18:09:00,
2013-10-19 14:14:00,55.4,39.9,29.76,West,262,0.0,8.0,56,0.00,,,0.00,meteohub,2013-10-19 18:14:00,
2013-10-19 14:20:00,55.8,40.3,29.76,WNW,293,1.0,8.0,56,0.00,,,0.00,meteohub,2013-10-19 18:20:00,
2013-10-19 14:25:00,55.9,39.9,29.76,North,10,2.0,8.0,55,0.00,,,0.00,meteohub,2013-10-19 18:25:00,
2013-10-19 14:30:00,56.3,39.9,29.76,WSW,244,7.0,9.0,54,0.00,,,0.00,meteohub,2013-10-19 18:30:00,
2013-10-19 14:35:00,56.7,40.3,29.76,SW,225,0.0,9.0,54,0.00,,,0.00,meteohub,2013-10-19 18:35:00,
2013-10-19 14:40:00,56.7,40.3,29.77,North,355,4.0,9.0,54,0.00,,,0.00,meteohub,2013-10-19 18:40:00,
2013-10-19 14:45:00,56.8,39.4,29.77,SW,227,3.0,10.0,52,0.00,,,0.00,meteohub,2013-10-19 18:45:00,
2013-10-19 14:50:00,56.8,39.4,29.77,NW,308,4.0,13.0,52,0.00,,,0.00,meteohub,2013-10-19 18:50:00,
2013-10-19 14:55:00,56.7,39.7,29.77,SW,229,0.0,13.0,53,0.00,,,0.00,meteohub,2013-10-19 18:55:00,
2013-10-19 15:01:00,56.1,38.7,29.77,West,267,4.0,14.0,52,0.00,,,0.00,meteohub,2013-10-19 19:01:00,
2013-10-19 15:06:00,55.8,38.5,29.77,North,9,3.0,14.0,52,0.00,,,0.00,meteohub,2013-10-19 19:06:00,
2013-10-19 15:11:00,55.6,39.2,29.77,NW,321,3.0,14.0,54,0.00,,,0.00,meteohub,2013-10-19 19:11:00,
2013-10-19 15:16:00,55.6,39.2,29.77,West,281,2.0,10.0,54,0.00,,,0.00,meteohub,2013-10-19 19:16:00,
2013-10-19 15:21:00,55.6,39.7,29.77,SW,219,5.0,9.0,55,0.00,,,0.00,meteohub,2013-10-19 19:21:00,
2013-10-19 15:26:00,55.6,39.2,29.77,West,274,1.0,8.0,54,0.00,,,0.00,meteohub,2013-10-19 19:26:00,
2013-10-19 15:31:00,55.8,39.4,29.77,WSW,255,1.0,8.0,54,0.00,,,0.00,meteohub,2013-10-19 19:31:00,
2013-10-19 15:37:00,55.8,39.9,29.77,WNW,298,5.0,11.0,55,0.00,,,0.00,meteohub,2013-10-19 19:37:00,
2013-10-19 15:42:00,55.9,39.0,29.77,West,273,5.0,11.0,53,0.00,,,0.00,meteohub,2013-10-19 19:42:00,
2013-10-19 15:47:00,55.9,38.5,29.77,West,270,6.0,6.0,52,0.00,,,0.00,meteohub,2013-10-19 19:47:00,
2013-10-19 15:52:00,56.1,38.7,29.77,SW,220,0.0,10.0,52,0.00,,,0.00,meteohub,2013-10-19 19:52:00,
2013-10-19 15:57:00,56.1,39.2,29.77,SW,230,0.0,10.0,53,0.00,,,0.00,meteohub,2013-10-19 19:57:00,
2013-10-19 16:02:00,56.1,39.2,29.77,NW,326,2.0,10.0,53,0.00,,,0.00,meteohub,2013-10-19 20:02:00,
2013-10-19 16:07:00,55.8,38.8,29.77,NW,305,2.0,9.0,53,0.00,,,0.00,meteohub,2013-10-19 20:07:00,
2013-10-19 16:12:00,55.2,38.3,29.77,West,281,1.0,11.0,53,0.00,,,0.00,meteohub,2013-10-19 20:12:00,
2013-10-19 16:17:00,55.0,38.7,29.78,NNW,331,1.0,11.0,54,0.00,,,0.00,meteohub,2013-10-19 20:17:00,
2013-10-19 16:22:00,54.9,38.5,29.77,SW,219,4.0,10.0,54,0.00,,,0.00,meteohub,2013-10-19 20:22:00,
2013-10-19 16:27:00,54.7,38.8,29.77,West,274,4.0,6.0,55,0.00,,,0.00,meteohub,2013-10-19 20:27:00,
2013-10-19 16:32:00,54.7,38.8,29.77,West,262,1.0,11.0,55,0.00,,,0.00,meteohub,2013-10-19 20:32:00,
2013-10-19 16:37:00,54.5,38.7,29.77,West,275,2.0,11.0,55,0.00,,,0.00,meteohub,2013-10-19 20:37:00,
2013-10-19 16:42:00,54.5,39.2,29.78,West,281,1.0,11.0,56,0.00,,,0.00,meteohub,2013-10-19 20:42:00,
2013-10-19 16:47:00,54.3,39.0,29.78,WSW,252,0.0,8.0,56,0.00,,,0.00,meteohub,2013-10-19 20:47:00,
2013-10-19 16:52:00,54.3,39.4,29.78,South,186,0.0,7.0,57,0.00,,,0.00,meteohub,2013-10-19 20:52:00,
2013-10-19 16:58:00,54.1,39.2,29.78,SW,233,4.0,7.0,57,0.00,,,0.00,meteohub,2013-10-19 20:58:00,
2013-10-19 17:03:00,54.0,39.6,29.78,WSW,254,0.0,6.0,58,0.00,,,0.00,meteohub,2013-10-19 21:03:00,
2013-10-19 17:08:00,54.0,39.6,29.78,West,281,0.0,6.0,58,0.00,,,0.00,meteohub,2013-10-19 21:08:00,
2013-10-19 17:13:00,53.8,39.7,29.78,West,262,5.0,6.0,59,0.00,,,0.00,meteohub,2013-10-19 21:13:00,
2013-10-19 17:18:00,53.4,39.4,29.79,SW,222,1.0,7.0,59,0.00,,,0.00,meteohub,2013-10-19 21:18:00,
2013-10-19 17:23:00,53.4,39.4,29.79,WSW,242,1.0,7.0,59,0.00,,,0.00,meteohub,2013-10-19 21:23:00,
2013-10-19 17:28:00,53.2,39.7,29.79,WSW,242,0.0,7.0,60,0.00,,,0.00,meteohub,2013-10-19 21:28:00,
2013-10-19 17:33:00,52.7,40.5,29.79,WSW,242,0.0,5.0,63,0.00,,,0.00,meteohub,2013-10-19 21:33:00,
2013-10-19 17:39:00,51.4,40.5,29.79,WSW,242,1.0,3.0,66,0.00,,,0.00,meteohub,2013-10-19 21:39:00,
2013-10-19 17:44:00,50.4,40.3,29.79,WSW,244,1.0,2.0,68,0.00,,,0.00,meteohub,2013-10-19 21:44:00,
2013-10-19 17:49:00,49.8,40.5,29.79,WSW,244,1.0,3.0,70,0.00,,,0.00,meteohub,2013-10-19 21:49:00,
2013-10-19 17:54:00,48.9,40.3,29.79,WSW,244,0.0,3.0,72,0.00,,,0.00,meteohub,2013-10-19 21:54:00,
2013-10-19 17:59:00,48.4,40.1,29.79,WSW,244,0.0,3.0,73,0.00,,,0.00,meteohub,2013-10-19 21:59:00,
2013-10-19 18:04:00,48.0,39.7,29.78,WSW,244,0.0,3.0,73,0.00,,,0.00,meteohub,2013-10-19 22:04:00,
2013-10-19 18:09:00,47.7,40.1,29.78,WSW,244,1.0,3.0,75,0.00,,,0.00,meteohub,2013-10-19 22:09:00,
2013-10-19 18:15:00,47.5,40.3,29.78,WSW,244,0.0,2.0,76,0.00,,,0.00,meteohub,2013-10-19 22:15:00,
2013-10-19 18:20:00,47.1,40.3,29.78,WSW,248,0.0,2.0,77,0.00,,,0.00,meteohub,2013-10-19 22:20:00,
2013-10-19 18:25:00,46.8,39.9,29.78,WSW,248,0.0,2.0,77,0.00,,,0.00,meteohub,2013-10-19 22:25:00,
2013-10-19 18:30:00,46.6,40.1,29.78,WSW,248,0.0,2.0,78,0.00,,,0.00,meteohub,2013-10-19 22:30:00,
2013-10-19 18:35:00,46.0,39.9,29.78,WSW,248,0.0,1.0,79,0.00,,,0.00,meteohub,2013-10-19 22:35:00,
2013-10-19 18:40:00,45.9,40.3,29.78,WSW,248,0.0,0.0,81,0.00,,,0.00,meteohub,2013-10-19 22:40:00,
2013-10-19 18:45:00,45.7,40.5,29.78,WSW,248,0.0,0.0,82,0.00,,,0.00,meteohub,2013-10-19 22:45:00,
2013-10-19 18:50:00,45.5,40.6,29.78,WSW,248,0.0,0.0,83,0.00,,,0.00,meteohub,2013-10-19 22:50:00,
2013-10-19 18:56:00,45.1,40.6,29.77,WSW,246,0.0,0.0,84,0.00,,,0.00,meteohub,2013-10-19 22:56:00,
2013-10-19 19:01:00,45.0,40.5,29.77,WSW,246,0.0,1.0,84,0.00,,,0.00,meteohub,2013-10-19 23:01:00,
2013-10-19 19:06:00,44.4,39.9,29.77,WSW,244,2.0,2.0,84,0.00,,,0.00,meteohub,2013-10-19 23:06:00,
2013-10-19 19:11:00,44.2,39.7,29.77,SW,217,0.0,3.0,84,0.00,,,0.00,meteohub,2013-10-19 23:11:00,
2013-10-19 19:16:00,44.2,39.7,29.77,SW,217,0.0,3.0,84,0.00,,,0.00,meteohub,2013-10-19 23:16:00,
2013-10-19 19:21:00,44.2,39.7,29.78,SW,217,0.0,3.0,84,0.00,,,0.00,meteohub,2013-10-19 23:21:00,
2013-10-19 19:26:00,44.1,39.9,29.78,SW,217,0.0,1.0,85,0.00,,,0.00,meteohub,2013-10-19 23:26:00,
2013-10-19 19:32:00,43.9,39.9,29.78,SW,217,0.0,1.0,86,0.00,,,0.00,meteohub,2013-10-19 23:32:00,
2013-10-19 19:37:00,43.9,40.6,29.78,SW,217,0.0,0.0,88,0.00,,,0.00,meteohub,2013-10-19 23:37:00,
2013-10-19 19:42:00,43.5,40.3,29.78,SW,217,0.0,1.0,88,0.00,,,0.00,meteohub,2013-10-19 23:42:00,
2013-10-19 19:47:00,43.5,40.3,29.78,SW,217,0.0,1.0,88,0.00,,,0.00,meteohub,2013-10-19 23:47:00,
2013-10-19 19:52:00,43.3,40.1,29.78,SW,217,0.0,1.0,88,0.00,,,0.00,meteohub,2013-10-19 23:52:00,
2013-10-19 19:57:00,43.3,40.3,29.78,SW,217,0.0,1.0,89,0.00,,,0.00,meteohub,2013-10-19 23:57:00,
2013-10-19 20:02:00,43.2,40.1,29.78,SW,217,0.0,1.0,89,0.00,,,0.00,meteohub,2013-10-20 00:02:00,
2013-10-19 20:07:00,43.2,39.9,29.78,SW,217,0.0,1.0,88,0.00,,,0.00,meteohub,2013-10-20 00:07:00,
2013-10-19 20:12:00,43.0,39.7,29.78,SW,217,0.0,0.0,88,0.00,,,0.00,meteohub,2013-10-20 00:12:00,
2013-10-19 20:17:00,42.6,39.6,29.78,SW,217,2.0,2.0,89,0.00,,,0.00,meteohub,2013-10-20 00:17:00,
2013-10-19 20:22:00,42.8,39.7,29.77,SW,217,1.0,2.0,89,0.00,,,0.00,meteohub,2013-10-20 00:22:00,
2013-10-19 20:27:00,43.0,39.9,29.77,SW,217,0.0,3.0,89,0.00,,,0.00,meteohub,2013-10-20 00:27:00,
2013-10-19 20:32:00,43.0,39.9,29.76,SW,217,0.0,3.0,89,0.00,,,0.00,meteohub,2013-10-20 00:32:00,
2013-10-19 20:37:00,43.0,39.9,29.76,SW,217,0.0,3.0,89,0.00,,,0.00,meteohub,2013-10-20 00:37:00,
2013-10-19 20:42:00,43.0,39.9,29.76,SW,217,0.0,1.0,89,0.00,,,0.00,meteohub,2013-10-20 00:42:00,
2013-10-19 20:47:00,42.8,40.1,29.76,SW,217,0.0,0.0,90,0.00,,,0.00,meteohub,2013-10-20 00:47:00,
2013-10-19 20:52:00,42.6,39.9,29.76,SSW,205,0.0,1.0,90,0.00,,,0.00,meteohub,2013-10-20 00:52:00,
2013-10-19 20:57:00,42.6,39.6,29.76,SW,223,0.0,3.0,89,0.00,,,0.00,meteohub,2013-10-20 00:57:00,
2013-10-19 21:03:00,42.6,39.6,29.76,SW,223,0.0,4.0,89,0.00,,,0.00,meteohub,2013-10-20 01:03:00,
2013-10-19 21:08:00,42.6,39.9,29.76,SSW,192,0.0,4.0,90,0.00,,,0.00,meteohub,2013-10-20 01:08:00,
2013-10-19 21:13:00,42.4,39.7,29.77,SSW,192,0.0,4.0,90,0.00,,,0.00,meteohub,2013-10-20 01:13:00,
2013-10-19 21:18:00,42.4,39.7,29.76,SSW,192,0.0,3.0,90,0.00,,,0.00,meteohub,2013-10-20 01:18:00,
2013-10-19 21:23:00,42.3,39.6,29.76,SSW,192,0.0,1.0,90,0.00,,,0.00,meteohub,2013-10-20 01:23:00,
2013-10-19 21:28:00,42.1,39.4,29.76,SSW,192,0.0,0.0,90,0.00,,,0.00,meteohub,2013-10-20 01:28:00,
2013-10-19 21:33:00,41.7,39.0,29.76,SSW,192,0.0,0.0,90,0.00,,,0.00,meteohub,2013-10-20 01:33:00,
2013-10-19 21:38:00,41.5,38.8,29.76,SSW,192,0.0,0.0,90,0.00,,,0.00,meteohub,2013-10-20 01:38:00,
2013-10-19 21:43:00,41.4,39.0,29.75,SSW,192,0.0,0.0,91,0.00,,,0.00,meteohub,2013-10-20 01:43:00,
2013-10-19 21:49:00,41.2,38.8,29.75,SSW,192,0.0,0.0,91,0.00,,,0.00,meteohub,2013-10-20 01:49:00,
2013-10-19 21:54:00,41.2,39.0,29.75,SSW,192,0.0,0.0,92,0.00,,,0.00,meteohub,2013-10-20 01:54:00,
2013-10-19 21:59:00,41.2,39.0,29.75,SSW,192,0.0,0.0,92,0.00,,,0.00,meteohub,2013-10-20 01:59:00,
2013-10-19 22:04:00,41.2,39.0,29.75,SSW,192,0.0,0.0,92,0.00,,,0.00,meteohub,2013-10-20 02:04:00,
2013-10-19 22:09:00,41.2,39.0,29.75,SSW,192,0.0,0.0,92,0.00,,,0.00,meteohub,2013-10-20 02:09:00,
2013-10-19 22:14:00,41.0,38.8,29.75,SSW,192,0.0,0.0,92,0.00,,,0.00,meteohub,2013-10-20 02:14:00,
2013-10-19 22:19:00,41.0,38.8,29.74,SSW,192,0.0,0.0,92,0.00,,,0.00,meteohub,2013-10-20 02:19:00,
2013-10-19 22:24:00,41.0,38.8,29.75,SSW,192,0.0,0.0,92,0.00,,,0.00,meteohub,2013-10-20 02:24:00,
2013-10-19 22:30:00,40.8,38.7,29.75,SSW,192,0.0,0.0,92,0.00,,,0.00,meteohub,2013-10-20 02:30:00,
2013-10-19 22:35:00,40.8,38.7,29.75,SSW,192,0.0,0.0,92,0.00,,,0.00,meteohub,2013-10-20 02:35:00,
2013-10-19 22:40:00,40.8,39.0,29.74,SSW,192,0.0,1.0,93,0.00,,,0.00,meteohub,2013-10-20 02:40:00,
2013-10-19 22:45:00,41.0,39.2,29.74,SSW,192,1.0,1.0,93,0.00,,,0.00,meteohub,2013-10-20 02:45:00,
2013-10-19 22:50:00,41.0,39.2,29.74,SSW,192,0.0,1.0,93,0.00,,,0.00,meteohub,2013-10-20 02:50:00,
2013-10-19 22:55:00,41.2,39.4,29.73,SSW,192,0.0,1.0,93,0.00,,,0.00,meteohub,2013-10-20 02:55:00,
2013-10-19 23:00:00,41.4,39.7,29.73,SSW,192,0.0,1.0,94,0.00,,,0.00,meteohub,2013-10-20 03:00:00,
2013-10-19 23:06:00,41.5,39.9,29.73,SSW,196,3.0,3.0,94,0.00,,,0.00,meteohub,2013-10-20 03:06:00,
2013-10-19 23:11:00,41.7,39.9,29.74,SSW,211,0.0,5.0,93,0.00,,,0.00,meteohub,2013-10-20 03:11:00,
2013-10-19 23:16:00,41.9,40.1,29.74,SSW,211,0.0,5.0,93,0.00,,,0.00,meteohub,2013-10-20 03:16:00,
2013-10-19 23:21:00,41.9,40.1,29.73,SSW,211,1.0,5.0,93,0.00,,,0.00,meteohub,2013-10-20 03:21:00,
2013-10-19 23:26:00,42.1,40.3,29.73,SW,215,0.0,3.0,93,0.00,,,0.00,meteohub,2013-10-20 03:26:00,
2013-10-19 23:31:00,42.1,39.9,29.73,SW,215,0.0,3.0,92,0.00,,,0.00,meteohub,2013-10-20 03:31:00,
2013-10-19 23:36:00,42.3,40.1,29.73,SSW,210,0.0,3.0,92,0.00,,,0.00,meteohub,2013-10-20 03:36:00,
2013-10-19 23:42:00,42.4,40.3,29.73,SSW,210,2.0,3.0,92,0.00,,,0.00,meteohub,2013-10-20 03:42:00,
2013-10-19 23:47:00,42.6,40.5,29.73,SSW,210,0.0,3.0,92,0.00,,,0.00,meteohub,2013-10-20 03:47:00,
2013-10-19 23:52:00,42.6,40.1,29.72,SSW,210,0.0,3.0,91,0.00,,,0.00,meteohub,2013-10-20 03:52:00,
2013-10-19 23:57:00,42.6,40.5,29.72,SSW,210,0.0,3.0,92,0.00,,,0.00,meteohub,2013-10-20 03:57:00,